Current | Forecast
Updated: 4:00 PM CEST on May 25, 2017
Observed at La Coruna Airport, Spain
Temperature 26°C
Humidity 44%
Dew Point 13°C
Wind South at 17 km/h
Pressure 1013 hPa (Falling)
Conditions Partly Cloudy
Visibility 10.0 kilometers
UV 10 out of 16
Clouds (FEW) : 1219 m
Yesterday's Maximum 31°C
Yesterday's Minimum 14°C approx.
Yesterday's Cooling Degree Days 8 approx.
Sunrise6:57 AM CEST
Sunset9:59 PM CEST
Moon Rise7:01 AM CEST
Moon Set9:34 PM CEST
Moon PhaseMoon Phase
Waning Crescent
Raw METARMETAR LECO 251400Z 19009KT 110V230 9999 FEW040 26/13 Q1013 NOSIG


Monday
. High: 64° F.
Tuesday
. High: 62° F.
Wednesday
. High: 57° F.
Thursday
. High: 59° F.
Friday
. High: 69° F.
Saturday
. High: 59° F.
Sunday
. High: 64° F.
Monday
. High: 73° F.

Click here for Marine Information
Scientific forecaster discussion (NWS)

Units: English | Metric

Find the Weather for any City, State or Zipcode, or Country:

U.S. State List | Severe Weather | Tropical Storms | Ski Conditions
United States | Canada | Central America | South America | Asia | Europe | Australia | Africa | Islands

Weather Underground

© Copyright 2017
The Weather Company, LLC